Terminal Aerodrome Forecast
Issued by NWS

Home | Current Version | Previous Version | Text Only | Print | Product List | Glossary Off
Versions: 1 2 3 4 5 6 7 8 9 10 11 12 13 14 15 16 17 18 19 20 21 22 23

132
FTUS43 KMPX 211136
TAFAXN
TAF
KAXN 211136Z 2112/2212 18010KT P6SM BKN050
     FM211600 35007KT P6SM SCT120 BKN250
     FM220000 34005KT P6SM SCT250
     FM220600 07004KT P6SM SCT250=

USA.gov is the U.S. government's official web portal to all federal, state and local government web resources and services.